Darstellungsparameter: Aktuell verwendete Einstellungen:
Skalierung der Graphiken ... ?
xyx+y,   Skalierungsfaktor:      Skalierung: Modus: x, Faktor: 1
Darstellungszeitraum ... ?
Vom - - bis: - -   Zeitraum: 21.02.2019 - 21.02.2019
Min/Max/Avg-Anzeige ... ?
Zeige MMA aktuell
Zeige MMA Monat
Zeige MMA alles
Zeige --A aktuell
Zeige --A Monat
Zeige --A alles
Keine MMA-Anzeige
MMA:
Keine MMA-Graphiken
MMA-Basis: 21.02.2019 - 21.02.2019
Quicknavigation für Darstellung... ?
Tage:      1T, 2T, 3T, 5T -1T -2T -3T -5T +1T +2T +3T +5T
Wochen: 1W, 2W, 3W -1W -2W -3W +1W +2W +3W
Monate: 1M, 3M, 6M -1M -3M -6M +1M +3M +6M
Jahre:    1J, 3J, 5J, 10J -1J -3J -5J -10J +1J +3J +5J +10J
Nutze für die Darstellung ... ?
Originaldaten oder Mittelwerte auf ...
Stundenbasis Tagesbasis Wochenbasis
Monatsbasis Jahresbasis      Datenbasis: Original-Daten
Darstellen als:
Statistik (Auto) Statistik J:M      Darstellung:
Zur Graphik,    zurück zur Übersicht aller Sensoren.
 
Tabellarische Datenbersicht: ?
 
Sensor: Nr:Datum:Temp:Feuchte:Taupunkt:
Aussen-T/F 1 21-02-2019 00:00:00 2.1 C 94 % 1.24 C
2 21-02-2019 00:05:00 1.9 C 95 % 1.19 C
3 21-02-2019 00:10:00 1.8 C 94 % 0.94 C
4 21-02-2019 00:15:00 1.7 C 94 % 0.84 C
5 21-02-2019 00:20:00 1.6 C 94 % 0.74 C
6 21-02-2019 00:25:00 1.5 C 94 % 0.64 C
7 21-02-2019 00:30:00 1.4 C 94 % 0.54 C
8 21-02-2019 00:35:00 1.4 C 95 % 0.69 C
9 21-02-2019 00:40:00 1.4 C 95 % 0.69 C
10 21-02-2019 00:45:00 1.3 C 95 % 0.59 C
11 21-02-2019 00:50:00 1.3 C 95 % 0.59 C
12 21-02-2019 00:55:00 1.5 C 95 % 0.79 C
13 21-02-2019 01:00:00 1.6 C 95 % 0.89 C
14 21-02-2019 01:05:00 1.6 C 95 % 0.89 C
15 21-02-2019 01:10:00 1.7 C 95 % 0.99 C
16 21-02-2019 01:15:00 1.7 C 95 % 0.99 C
17 21-02-2019 01:20:00 1.8 C 95 % 1.09 C
18 21-02-2019 01:25:00 1.7 C 95 % 0.99 C
19 21-02-2019 01:30:00 1.6 C 95 % 0.89 C
20 21-02-2019 01:35:00 1.3 C 95 % 0.59 C
21 21-02-2019 01:40:00 1.3 C 95 % 0.59 C
22 21-02-2019 01:45:00 1.3 C 95 % 0.59 C
23 21-02-2019 01:50:00 1.6 C 96 % 1.03 C
24 21-02-2019 01:55:00 1.8 C 96 % 1.23 C
25 21-02-2019 02:00:00 1.8 C 96 % 1.23 C
Sensor: Nr:Datum:Temp:Feuchte:Taupunkt:
Aussen-T/F 26 21-02-2019 02:05:00 1.8 C 96 % 1.23 C
27 21-02-2019 02:10:00 1.7 C 95 % 0.99 C
28 21-02-2019 02:15:00 1.4 C 95 % 0.69 C
29 21-02-2019 02:20:00 1.2 C 95 % 0.49 C
30 21-02-2019 02:25:00 0.9 C 95 % 0.19 C
31 21-02-2019 02:30:00 0.8 C 95 % 0.09 C
32 21-02-2019 02:35:00 0.7 C 95 % -0.01 C
33 21-02-2019 02:40:00 0.7 C 95 % -0.01 C
34 21-02-2019 02:45:00 0.6 C 95 % -0.11 C
35 21-02-2019 02:50:00 0.6 C 95 % -0.11 C
36 21-02-2019 02:55:00 0.6 C 95 % -0.11 C
37 21-02-2019 03:00:00 0.7 C 96 % 0.14 C
38 21-02-2019 03:05:00 0.7 C 96 % 0.14 C
39 21-02-2019 03:10:00 0.7 C 95 % -0.01 C
40 21-02-2019 03:15:00 0.7 C 96 % 0.14 C
41 21-02-2019 03:20:00 0.7 C 96 % 0.14 C
42 21-02-2019 03:25:00 0.6 C 96 % 0.04 C
43 21-02-2019 03:30:00 0.7 C 96 % 0.14 C
44 21-02-2019 03:35:00 0.7 C 96 % 0.14 C
45 21-02-2019 03:40:00 0.8 C 96 % 0.24 C
46 21-02-2019 03:45:00 0.8 C 96 % 0.24 C
47 21-02-2019 03:50:00 0.8 C 96 % 0.24 C
48 21-02-2019 03:55:00 1 C 96 % 0.44 C
49 21-02-2019 04:00:00 1.1 C 96 % 0.54 C
50 21-02-2019 04:05:00 1.2 C 96 % 0.63 C
Sensor: Nr:Datum:Temp:Feuchte:Taupunkt:
Aussen-T/F 51 21-02-2019 04:10:00 1.1 C 96 % 0.54 C
52 21-02-2019 04:15:00 0.9 C 96 % 0.34 C
53 21-02-2019 04:20:00 0.8 C 96 % 0.24 C
54 21-02-2019 04:25:00 0.8 C 96 % 0.24 C
55 21-02-2019 04:30:00 0.8 C 96 % 0.24 C
56 21-02-2019 04:35:00 0.9 C 96 % 0.34 C
57 21-02-2019 04:40:00 0.9 C 96 % 0.34 C
58 21-02-2019 04:45:00 0.9 C 96 % 0.34 C
59 21-02-2019 04:50:00 0.8 C 96 % 0.24 C
60 21-02-2019 04:55:00 0.8 C 96 % 0.24 C
61 21-02-2019 05:00:00 0.7 C 96 % 0.14 C
62 21-02-2019 05:05:00 0.6 C 96 % 0.04 C
63 21-02-2019 05:10:00 0.6 C 96 % 0.04 C
64 21-02-2019 05:15:00 0.5 C 96 % -0.06 C
65 21-02-2019 05:20:00 0.5 C 96 % -0.06 C
66 21-02-2019 05:25:00 0.7 C 96 % 0.14 C
67 21-02-2019 05:30:00 0.9 C 96 % 0.34 C
68 21-02-2019 05:35:00 1.2 C 96 % 0.63 C
69 21-02-2019 05:40:00 1.6 C 97 % 1.18 C
70 21-02-2019 05:45:00 1.8 C 97 % 1.38 C
71 21-02-2019 05:50:00 1.8 C 97 % 1.38 C
72 21-02-2019 05:55:00 1.9 C 97 % 1.48 C
73 21-02-2019 06:00:00 1.9 C 97 % 1.48 C
74 21-02-2019 06:05:00 1.9 C 97 % 1.48 C
75 21-02-2019 06:10:00 1.8 C 97 % 1.38 C
Sensor: Nr:Datum:Temp:Feuchte:Taupunkt:
Aussen-T/F 76 21-02-2019 06:15:00 1.7 C 96 % 1.13 C
77 21-02-2019 06:20:00 1.4 C 96 % 0.83 C
78 21-02-2019 06:25:00 1.3 C 96 % 0.73 C
79 21-02-2019 06:30:00 1.2 C 96 % 0.63 C
80 21-02-2019 06:35:00 1 C 96 % 0.44 C
81 21-02-2019 06:40:00 0.8 C 96 % 0.24 C
82 21-02-2019 06:45:00 0.7 C 96 % 0.14 C
83 21-02-2019 06:50:00 0.6 C 96 % 0.04 C
84 21-02-2019 06:55:00 0.7 C 96 % 0.14 C
85 21-02-2019 07:00:00 0.7 C 96 % 0.14 C
86 21-02-2019 07:05:00 0.8 C 96 % 0.24 C
87 21-02-2019 07:10:00 1.1 C 96 % 0.54 C
88 21-02-2019 07:15:00 1.2 C 96 % 0.63 C
89 21-02-2019 07:20:00 1.3 C 97 % 0.88 C
90 21-02-2019 07:25:00 1.3 C 97 % 0.88 C
91 21-02-2019 07:30:00 1.3 C 97 % 0.88 C
92 21-02-2019 07:35:00 1.3 C 97 % 0.88 C
93 21-02-2019 07:40:00 1.3 C 97 % 0.88 C
94 21-02-2019 07:45:00 1.4 C 96 % 0.83 C
95 21-02-2019 07:50:00 1.4 C 96 % 0.83 C
96 21-02-2019 07:55:00 1.5 C 96 % 0.93 C
97 21-02-2019 08:00:00 1.6 C 97 % 1.18 C
98 21-02-2019 08:05:00 1.7 C 97 % 1.28 C
99 21-02-2019 08:10:00 1.8 C 97 % 1.38 C
100 21-02-2019 08:15:00 1.9 C 97 % 1.48 C
Sensor: Nr:Datum:Temp:Feuchte:Taupunkt:
Aussen-T/F 101 21-02-2019 08:20:00 2.1 C 97 % 1.67 C
102 21-02-2019 08:25:00 2.1 C 97 % 1.67 C
103 21-02-2019 08:30:00 2.2 C 97 % 1.77 C
104 21-02-2019 08:35:00 2.3 C 97 % 1.87 C
105 21-02-2019 08:40:00 2.3 C 97 % 1.87 C
106 21-02-2019 08:45:00 2.4 C 97 % 1.97 C
107 21-02-2019 08:50:00 2.4 C 97 % 1.97 C
108 21-02-2019 08:55:00 2.5 C 97 % 2.07 C
109 21-02-2019 09:00:00 2.6 C 97 % 2.17 C
110 21-02-2019 09:05:00 2.6 C 97 % 2.17 C
111 21-02-2019 09:10:00 2.7 C 97 % 2.27 C
112 21-02-2019 09:15:00 2.7 C 97 % 2.27 C
113 21-02-2019 09:20:00 2.8 C 97 % 2.37 C
114 21-02-2019 09:25:00 2.8 C 97 % 2.37 C
115 21-02-2019 09:30:00 2.8 C 97 % 2.37 C
116 21-02-2019 09:35:00 2.9 C 97 % 2.47 C
117 21-02-2019 09:40:00 2.9 C 97 % 2.47 C
118 21-02-2019 09:45:00 3 C 97 % 2.57 C
119 21-02-2019 09:50:00 3.1 C 97 % 2.67 C
120 21-02-2019 09:55:00 3.2 C 97 % 2.77 C
121 21-02-2019 10:00:00 3.2 C 97 % 2.77 C
122 21-02-2019 10:05:00 3.3 C 97 % 2.87 C
123 21-02-2019 10:10:00 3.4 C 97 % 2.97 C
124 21-02-2019 10:15:00 3.7 C 97 % 3.27 C
125 21-02-2019 10:20:00 3.8 C 97 % 3.37 C
Sensor: Nr:Datum:Temp:Feuchte:Taupunkt:
Aussen-T/F 126 21-02-2019 10:25:00 3.9 C 97 % 3.47 C
127 21-02-2019 10:30:00 4 C 97 % 3.57 C
128 21-02-2019 10:35:00 4.2 C 97 % 3.77 C
129 21-02-2019 10:40:00 4.2 C 97 % 3.77 C
130 21-02-2019 10:45:00 4.3 C 97 % 3.87 C
131 21-02-2019 10:50:00 4.4 C 97 % 3.97 C
132 21-02-2019 10:55:00 4.6 C 97 % 4.17 C
133 21-02-2019 11:00:00 4.8 C 97 % 4.37 C
134 21-02-2019 11:05:00 4.9 C 96 % 4.32 C
135 21-02-2019 11:10:00 5.1 C 96 % 4.52 C
136 21-02-2019 11:15:00 5.3 C 96 % 4.72 C
137 21-02-2019 11:20:00 5.4 C 96 % 4.81 C
138 21-02-2019 11:25:00 5.6 C 95 % 4.86 C
139 21-02-2019 11:30:00 5.7 C 95 % 4.96 C
140 21-02-2019 11:35:00 5.9 C 95 % 5.16 C
141 21-02-2019 11:40:00 6.2 C 94 % 5.31 C
142 21-02-2019 11:45:00 6.4 C 93 % 5.35 C
143 21-02-2019 11:50:00 6.6 C 93 % 5.55 C
144 21-02-2019 11:55:00 6.8 C 92 % 5.59 C
145 21-02-2019 12:00:00 7 C 92 % 5.79 C
146 21-02-2019 12:05:00 7.2 C 92 % 5.99 C
147 21-02-2019 12:10:00 7.4 C 91 % 6.03 C
148 21-02-2019 12:15:00 7.7 C 91 % 6.33 C
149 21-02-2019 12:20:00 7.8 C 90 % 6.27 C
150 21-02-2019 12:25:00 8.1 C 90 % 6.56 C
Sensor: Nr:Datum:Temp:Feuchte:Taupunkt:
Aussen-T/F 151 21-02-2019 12:30:00 8.3 C 90 % 6.76 C
152 21-02-2019 12:35:00 8.5 C 90 % 6.96 C
153 21-02-2019 12:40:00 8.8 C 90 % 7.25 C
154 21-02-2019 12:45:00 9.3 C 89 % 7.58 C
155 21-02-2019 12:50:00 9.8 C 87 % 7.74 C
156 21-02-2019 12:55:00 10.1 C 86 % 7.87 C
157 21-02-2019 13:00:00 10.3 C 85 % 7.89 C
158 21-02-2019 13:05:00 10.5 C 84 % 7.91 C
159 21-02-2019 13:10:00 10.7 C 84 % 8.11 C
160 21-02-2019 13:15:00 10.8 C 83 % 8.03 C
161 21-02-2019 13:20:00 11 C 84 % 8.4 C
162 21-02-2019 13:25:00 11.3 C 83 % 8.52 C
163 21-02-2019 13:30:00 11.5 C 81 % 8.36 C
164 21-02-2019 13:35:00 11.7 C 81 % 8.55 C
165 21-02-2019 13:40:00 11.8 C 80 % 8.47 C
166 21-02-2019 13:45:00 11.9 C 79 % 8.38 C
167 21-02-2019 13:50:00 12 C 79 % 8.48 C
168 21-02-2019 13:55:00 12.1 C 79 % 8.57 C
169 21-02-2019 14:00:00 12.1 C 79 % 8.57 C
170 21-02-2019 14:05:00 12.2 C 78 % 8.48 C
171 21-02-2019 14:10:00 12.3 C 79 % 8.77 C
172 21-02-2019 14:15:00 12.6 C 78 % 8.87 C
173 21-02-2019 14:20:00 12.7 C 77 % 8.78 C
174 21-02-2019 14:25:00 12.7 C 76 % 8.58 C
175 21-02-2019 14:30:00 12.8 C 76 % 8.68 C
Sensor: Nr:Datum:Temp:Feuchte:Taupunkt:
Aussen-T/F 176 21-02-2019 14:35:00 12.8 C 76 % 8.68 C
177 21-02-2019 14:40:00 12.7 C 76 % 8.58 C
178 21-02-2019 14:45:00 12.7 C 76 % 8.58 C
179 21-02-2019 14:50:00 12.7 C 76 % 8.58 C
180 21-02-2019 14:55:00 12.9 C 77 % 8.97 C
181 21-02-2019 15:00:00 13.2 C 75 % 8.87 C
182 21-02-2019 15:05:00 13.2 C 75 % 8.87 C
183 21-02-2019 15:10:00 13.3 C 74 % 8.77 C
184 21-02-2019 15:15:00 13.4 C 74 % 8.87 C
185 21-02-2019 15:20:00 13.4 C 74 % 8.87 C
186 21-02-2019 15:25:00 13.3 C 74 % 8.77 C
187 21-02-2019 15:30:00 13.3 C 75 % 8.97 C
188 21-02-2019 15:35:00 13.3 C 74 % 8.77 C
189 21-02-2019 15:40:00 13.3 C 75 % 8.97 C
190 21-02-2019 15:45:00 13.4 C 74 % 8.87 C
191 21-02-2019 15:50:00 13.4 C 73 % 8.66 C
192 21-02-2019 15:55:00 13.4 C 74 % 8.87 C
193 21-02-2019 16:00:00 13.3 C 73 % 8.57 C
194 21-02-2019 16:05:00 13.3 C 73 % 8.57 C
195 21-02-2019 16:10:00 13.3 C 74 % 8.77 C
196 21-02-2019 16:15:00 13.3 C 75 % 8.97 C
197 21-02-2019 16:20:00 13.4 C 75 % 9.06 C
198 21-02-2019 16:25:00 13.4 C 74 % 8.87 C
199 21-02-2019 16:30:00 13.4 C 74 % 8.87 C
200 21-02-2019 16:35:00 13.4 C 74 % 8.87 C
Sensor: Nr:Datum:Temp:Feuchte:Taupunkt:
Aussen-T/F 201 21-02-2019 16:40:00 13.4 C 74 % 8.87 C
202 21-02-2019 16:45:00 13.3 C 75 % 8.97 C
203 21-02-2019 16:50:00 13.3 C 74 % 8.77 C
204 21-02-2019 16:55:00 13.3 C 74 % 8.77 C
205 21-02-2019 17:00:00 13.2 C 73 % 8.47 C
206 21-02-2019 17:05:00 13.1 C 73 % 8.38 C
207 21-02-2019 17:10:00 13.1 C 73 % 8.38 C
208 21-02-2019 17:15:00 13.1 C 75 % 8.77 C
209 21-02-2019 17:20:00 13.1 C 80 % 9.73 C
210 21-02-2019 17:25:00 12.8 C 81 % 9.62 C
211 21-02-2019 17:30:00 12.6 C 82 % 9.61 C
212 21-02-2019 17:35:00 12.3 C 83 % 9.5 C
213 21-02-2019 17:40:00 12 C 84 % 9.38 C
214 21-02-2019 17:45:00 11.7 C 84 % 9.09 C
215 21-02-2019 17:50:00 11.5 C 85 % 9.07 C
216 21-02-2019 17:55:00 11.3 C 85 % 8.87 C
217 21-02-2019 18:00:00 11.1 C 86 % 8.85 C
218 21-02-2019 18:05:00 10.9 C 86 % 8.65 C
219 21-02-2019 18:10:00 10.8 C 86 % 8.56 C
220 21-02-2019 18:15:00 10.7 C 86 % 8.46 C
221 21-02-2019 18:20:00 10.6 C 86 % 8.36 C
222 21-02-2019 18:25:00 10.6 C 86 % 8.36 C
223 21-02-2019 18:30:00 10.5 C 86 % 8.26 C
224 21-02-2019 18:35:00 10.4 C 86 % 8.16 C
225 21-02-2019 18:40:00 10.4 C 86 % 8.16 C
Sensor: Nr:Datum:Temp:Feuchte:Taupunkt:
Aussen-T/F 226 21-02-2019 18:45:00 10.3 C 86 % 8.06 C
227 21-02-2019 18:50:00 10.3 C 87 % 8.23 C
228 21-02-2019 18:55:00 10.2 C 87 % 8.14 C
229 21-02-2019 19:00:00 10.2 C 87 % 8.14 C
230 21-02-2019 19:05:00 10.1 C 86 % 7.87 C
231 21-02-2019 19:10:00 10 C 86 % 7.77 C
232 21-02-2019 19:15:00 9.8 C 86 % 7.57 C
233 21-02-2019 19:20:00 9.8 C 87 % 7.74 C
234 21-02-2019 19:25:00 9.7 C 88 % 7.81 C
235 21-02-2019 19:30:00 9.7 C 88 % 7.81 C
236 21-02-2019 19:35:00 9.7 C 88 % 7.81 C
237 21-02-2019 19:40:00 9.6 C 88 % 7.71 C
238 21-02-2019 19:45:00 9.6 C 87 % 7.55 C
239 21-02-2019 19:50:00 9.4 C 88 % 7.52 C
240 21-02-2019 19:55:00 9.3 C 88 % 7.42 C
241 21-02-2019 20:00:00 9.2 C 88 % 7.32 C
242 21-02-2019 20:05:00 9.2 C 89 % 7.48 C
243 21-02-2019 20:10:00 9.2 C 89 % 7.48 C
244 21-02-2019 20:15:00 9.1 C 89 % 7.39 C
245 21-02-2019 20:20:00 9.1 C 89 % 7.39 C
246 21-02-2019 20:25:00 9.2 C 90 % 7.65 C
247 21-02-2019 20:30:00 9.2 C 90 % 7.65 C
248 21-02-2019 20:35:00 9.2 C 90 % 7.65 C
249 21-02-2019 20:40:00 9.2 C 90 % 7.65 C
250 21-02-2019 20:45:00 9.2 C 90 % 7.65 C
Sensor: Nr:Datum:Temp:Feuchte:Taupunkt:
Aussen-T/F 251 21-02-2019 20:50:00 9.2 C 90 % 7.65 C
252 21-02-2019 20:55:00 9.2 C 90 % 7.65 C
253 21-02-2019 21:00:00 9.3 C 90 % 7.75 C
254 21-02-2019 21:05:00 9.3 C 90 % 7.75 C
255 21-02-2019 21:10:00 9.3 C 91 % 7.91 C
256 21-02-2019 21:15:00 9.3 C 91 % 7.91 C
257 21-02-2019 21:20:00 9.3 C 91 % 7.91 C
258 21-02-2019 21:25:00 9.3 C 91 % 7.91 C
259 21-02-2019 21:30:00 9.3 C 91 % 7.91 C
260 21-02-2019 21:35:00 9.3 C 91 % 7.91 C
261 21-02-2019 21:40:00 9.3 C 90 % 7.75 C
262 21-02-2019 21:45:00 9.4 C 90 % 7.85 C
263 21-02-2019 21:50:00 9.4 C 90 % 7.85 C
264 21-02-2019 21:55:00 9.4 C 90 % 7.85 C
265 21-02-2019 22:00:00 9.3 C 90 % 7.75 C
266 21-02-2019 22:05:00 9.3 C 90 % 7.75 C
267 21-02-2019 22:10:00 9.3 C 89 % 7.58 C
268 21-02-2019 22:15:00 9.3 C 90 % 7.75 C
269 21-02-2019 22:20:00 9.3 C 89 % 7.58 C
270 21-02-2019 22:25:00 9.3 C 89 % 7.58 C
271 21-02-2019 22:30:00 9.3 C 89 % 7.58 C
272 21-02-2019 22:35:00 9.3 C 89 % 7.58 C
273 21-02-2019 22:40:00 9.3 C 89 % 7.58 C
274 21-02-2019 22:45:00 9.2 C 89 % 7.48 C
275 21-02-2019 22:50:00 9.2 C 89 % 7.48 C
Sensor: Nr:Datum:Temp:Feuchte:Taupunkt:
Aussen-T/F 276 21-02-2019 22:55:00 9.2 C 89 % 7.48 C
277 21-02-2019 23:00:00 9.1 C 89 % 7.39 C
278 21-02-2019 23:05:00 9.1 C 89 % 7.39 C
279 21-02-2019 23:10:00 9 C 89 % 7.29 C
280 21-02-2019 23:15:00 9 C 90 % 7.45 C
281 21-02-2019 23:20:00 9.1 C 90 % 7.55 C
282 21-02-2019 23:25:00 9.2 C 90 % 7.65 C
283 21-02-2019 23:30:00 9.3 C 90 % 7.75 C
284 21-02-2019 23:35:00 9.3 C 89 % 7.58 C
285 21-02-2019 23:40:00 9.4 C 89 % 7.68 C
286 21-02-2019 23:45:00 9.3 C 89 % 7.58 C
287 21-02-2019 23:50:00 9.4 C 89 % 7.68 C
288 21-02-2019 23:55:00 9.4 C 89 % 7.68 C

Legende:
   Min
   Max


Maximal/Minimal-Werte vom 21.02.2019 - 21.02.2019

Sensor Min Max Avg
Temp
(Aussen-T/F)
0.5 °C
21-02-2019  05:15:00
13.4 °C
21-02-2019  15:15:00
6.36 °C
Feuchte
(Aussen-T/F)
73 %
21-02-2019  15:50:00
97 %
21-02-2019  05:40:00
90.02 %
Taupunkt
(Aussen-T/F)
-0.11 C
21-02-2019  02:45:00
9.73 C
21-02-2019  17:20:00
4.74 C

Die Daten stammen von einer Davis Vantage Pro 2 Wetter-Station und werden unter Linux mit der Software wview2wettercgi und aufbereitet. Alle Angaben erfolgen ohne Gewähr für ihre Vollständigkeit oder Richtigkeit.
Kontakt: Rainer Krienke krienke@uni-koblenz.de . Meine Webseiten an der Uni Koblenz oder privat.
Version: $Revision: 0.78 $